createdAt,value
2019-02-07T00:00:56.553Z,-0.80
2019-02-07T00:03:25.642Z,-0.80
2019-02-07T00:05:54.729Z,-0.80
2019-02-07T00:08:23.927Z,-0.80
2019-02-07T00:10:52.921Z,-0.70
2019-02-07T00:13:21.925Z,-0.80
2019-02-07T00:15:50.846Z,-0.80
2019-02-07T00:18:19.786Z,-0.70
2019-02-07T00:20:48.795Z,-0.70
2019-02-07T00:23:18.496Z,-0.70
2019-02-07T00:25:47.489Z,-0.70
2019-02-07T00:28:16.494Z,-0.60
2019-02-07T00:30:45.493Z,-0.70
2019-02-07T00:33:14.486Z,-0.70
2019-02-07T00:35:43.518Z,-0.70
2019-02-07T00:38:12.830Z,-0.80
2019-02-07T00:40:41.763Z,-0.90
2019-02-07T00:43:10.911Z,-0.80
2019-02-07T00:45:39.884Z,-0.80
2019-02-07T00:48:08.891Z,-0.90
2019-02-07T00:50:37.897Z,-0.90
2019-02-07T00:53:07.264Z,-0.90
2019-02-07T00:55:36.279Z,-1.00
2019-02-07T00:58:05.385Z,-1.00
2019-02-07T01:00:34.717Z,-0.90
2019-02-07T01:03:03.713Z,-1.00
2019-02-07T01:05:32.730Z,-1.00
2019-02-07T01:08:02.000Z,-1.00
2019-02-07T01:10:31.605Z,-1.00
2019-02-07T01:13:00.632Z,-1.00
2019-02-07T01:15:29.737Z,-1.00
2019-02-07T01:17:58.746Z,-1.00
2019-02-07T01:20:27.770Z,-0.90
2019-02-07T01:22:57.249Z,-0.90
2019-02-07T01:25:26.444Z,-0.90
2019-02-07T01:27:55.833Z,-1.00
2019-02-07T01:30:24.969Z,-1.00
2019-02-07T01:32:53.953Z,-1.10
2019-02-07T01:35:22.981Z,-1.10
2019-02-07T01:37:52.451Z,-1.00
2019-02-07T01:40:21.667Z,-1.10
2019-02-07T01:42:50.770Z,-1.10
2019-02-07T01:45:20.985Z,-1.00
2019-02-07T01:47:50.461Z,-1.00
2019-02-07T01:50:21.217Z,-1.00
2019-02-07T01:52:50.602Z,-1.00
2019-02-07T01:55:19.863Z,-1.00
2019-02-07T01:57:48.883Z,-1.10
2019-02-07T02:00:18.206Z,-1.10
2019-02-07T02:02:47.206Z,-1.10
2019-02-07T02:05:17.344Z,-1.10
2019-02-07T02:07:47.475Z,-1.10
2019-02-07T02:10:18.595Z,-1.00
2019-02-07T02:12:47.718Z,-0.90
2019-02-07T02:15:24.517Z,-0.90
2019-02-07T02:17:50.982Z,-0.90
2019-02-07T02:20:21.518Z,-0.90
2019-02-07T02:22:50.918Z,-0.90
2019-02-07T02:25:20.225Z,-0.90
2019-02-07T02:27:49.532Z,-0.90
2019-02-07T02:30:24.562Z,-0.90
2019-02-07T02:32:53.560Z,-0.90
2019-02-07T02:35:22.960Z,-0.80
2019-02-07T02:37:51.952Z,-0.80
2019-02-07T02:40:21.161Z,-0.80
2019-02-07T02:42:50.144Z,-0.80
2019-02-07T02:45:19.802Z,-0.80
2019-02-07T02:47:48.941Z,-0.70
2019-02-07T02:50:18.994Z,-0.80
2019-02-07T02:52:48.090Z,-0.80
2019-02-07T02:55:26.484Z,-0.80
2019-02-07T02:57:55.527Z,-0.80
2019-02-07T03:00:28.174Z,-0.70
2019-02-07T03:03:19.880Z,-0.70
2019-02-07T03:06:17.278Z,-0.70
2019-02-07T03:08:54.043Z,-0.60
2019-02-07T03:11:42.115Z,-0.60
2019-02-07T03:14:21.309Z,-0.50
2019-02-07T03:17:15.186Z,-0.40
2019-02-07T03:20:03.264Z,-0.40
2019-02-07T03:23:02.926Z,-0.50
2019-02-07T03:25:50.922Z,-0.40
2019-02-07T03:28:48.432Z,-0.40
2019-02-07T03:31:44.567Z,-0.30
2019-02-07T03:34:22.149Z,-0.20
2019-02-07T03:37:19.193Z,-0.10
2019-02-07T03:40:08.049Z,-0.20
2019-02-07T03:42:50.382Z,-0.20
2019-02-07T03:45:37.482Z,-0.10
2019-02-07T03:48:28.571Z,-0.10
2019-02-07T03:51:15.309Z,-0.10
2019-02-07T03:54:02.521Z,-0.10
2019-02-07T03:56:59.575Z,0.00
2019-02-07T03:59:52.930Z,0.00
2019-02-07T04:02:40.676Z,0.00
2019-02-07T04:05:38.238Z,0.10
2019-02-07T04:08:44.734Z,0.20
2019-02-07T04:11:38.955Z,0.20
2019-02-07T04:14:21.790Z,0.20
2019-02-07T04:17:15.971Z,0.20
2019-02-07T04:20:07.098Z,0.10
2019-02-07T04:22:58.769Z,0.10
2019-02-07T04:25:36.783Z,0.10
2019-02-07T04:28:27.559Z,0.20
2019-02-07T04:31:10.837Z,0.30
2019-02-07T04:33:58.205Z,0.40
2019-02-07T04:36:42.617Z,0.40
2019-02-07T04:39:33.634Z,0.40
2019-02-07T04:42:27.888Z,0.40
2019-02-07T04:45:18.950Z,0.40
2019-02-07T04:48:05.818Z,0.40
2019-02-07T04:50:52.775Z,0.30
2019-02-07T04:53:39.696Z,0.40
2019-02-07T04:59:27.668Z,0.40
2019-02-07T05:02:33.873Z,0.40
2019-02-07T05:05:20.620Z,0.40
2019-02-07T05:08:02.507Z,0.40
2019-02-07T05:10:52.724Z,0.50
2019-02-07T05:13:40.565Z,0.50
2019-02-07T05:16:18.246Z,0.50
2019-02-07T05:19:05.106Z,0.60
2019-02-07T05:22:05.795Z,0.50
2019-02-07T05:24:41.798Z,0.50
2019-02-07T05:27:36.113Z,0.50
2019-02-07T05:30:25.878Z,0.50
2019-02-07T05:33:12.822Z,0.50
2019-02-07T05:35:59.972Z,0.50
2019-02-07T05:38:47.263Z,0.50
2019-02-07T05:41:23.281Z,0.50
2019-02-07T05:44:06.150Z,0.50
2019-02-07T05:46:55.082Z,0.60
2019-02-07T05:49:42.619Z,0.50
2019-02-07T05:52:30.979Z,0.40
2019-02-07T05:55:20.553Z,0.50
2019-02-07T05:58:11.397Z,0.40
2019-02-07T06:00:51.716Z,0.40
2019-02-07T06:03:28.570Z,0.50
2019-02-07T06:06:15.641Z,0.60
2019-02-07T06:09:00.853Z,0.50
2019-02-07T06:11:51.975Z,0.30
2019-02-07T06:14:36.634Z,0.40
2019-02-07T06:17:23.745Z,0.50
2019-02-07T06:20:11.801Z,0.50
2019-02-07T06:22:59.096Z,0.60
2019-02-07T06:26:05.565Z,0.60
2019-02-07T06:28:53.562Z,0.50
2019-02-07T06:31:50.760Z,0.50
2019-02-07T06:34:51.635Z,0.50
2019-02-07T06:37:39.652Z,0.50
2019-02-07T06:40:26.923Z,0.50
2019-02-07T06:43:21.054Z,0.60
2019-02-07T06:46:04.705Z,0.50
2019-02-07T06:48:52.693Z,0.60
2019-02-07T06:51:44.167Z,0.70
2019-02-07T06:54:41.081Z,0.80
2019-02-07T06:57:38.556Z,0.90
2019-02-07T07:00:20.905Z,0.80
2019-02-07T07:02:59.902Z,0.90
2019-02-07T07:05:47.986Z,1.00
2019-02-07T07:08:28.245Z,1.10
2019-02-07T07:11:14.166Z,1.00
2019-02-07T07:14:06.674Z,1.00
2019-02-07T07:16:55.116Z,1.10
2019-02-07T07:19:33.286Z,1.00
2019-02-07T07:22:20.161Z,1.10
2019-02-07T07:25:11.494Z,1.10
2019-02-07T07:27:57.284Z,1.20
2019-02-07T07:30:57.632Z,1.20
2019-02-07T07:33:51.870Z,1.20
2019-02-07T07:36:55.076Z,1.10
2019-02-07T07:39:53.180Z,1.20
2019-02-07T07:42:32.105Z,1.20
2019-02-07T07:45:21.098Z,1.30
2019-02-07T07:48:06.746Z,1.30
2019-02-07T07:50:57.815Z,1.30
2019-02-07T07:53:44.569Z,1.40
2019-02-07T07:56:31.687Z,1.40
2019-02-07T07:59:26.184Z,1.50
2019-02-07T08:02:12.850Z,1.60
2019-02-07T08:05:01.325Z,1.60
2019-02-07T08:07:54.681Z,1.70
2019-02-07T08:10:38.639Z,1.80
2019-02-07T08:13:20.410Z,1.80
2019-02-07T08:15:57.425Z,1.80
2019-02-07T08:19:00.871Z,1.90
2019-02-07T08:21:47.651Z,1.90
2019-02-07T08:24:42.677Z,2.00
2019-02-07T08:27:20.631Z,2.00
2019-02-07T08:30:21.179Z,2.00
2019-02-07T08:33:12.097Z,2.00
2019-02-07T08:35:59.262Z,2.10
2019-02-07T08:38:42.513Z,2.10
2019-02-07T08:41:33.586Z,2.20
2019-02-07T08:44:24.440Z,2.20
2019-02-07T08:47:02.222Z,2.30
2019-02-07T08:49:50.517Z,2.40
2019-02-07T08:52:37.370Z,2.50
2019-02-07T08:55:22.442Z,2.50
2019-02-07T08:58:16.254Z,2.50
2019-02-07T09:01:02.727Z,2.60
2019-02-07T09:04:01.724Z,2.60
2019-02-07T09:06:49.426Z,2.70
2019-02-07T09:09:43.566Z,2.80
2019-02-07T09:12:32.898Z,2.80
2019-02-07T09:15:29.870Z,2.80
2019-02-07T09:18:16.874Z,2.80
2019-02-07T09:21:13.625Z,3.00
2019-02-07T09:24:06.421Z,3.10
2019-02-07T09:26:57.249Z,3.20
2019-02-07T09:29:48.346Z,3.30
2019-02-07T09:32:41.406Z,3.40
2019-02-07T09:35:32.485Z,3.50
2019-02-07T09:38:35.842Z,3.50
2019-02-07T09:41:36.141Z,3.60
2019-02-07T09:44:23.387Z,3.70
2019-02-07T09:47:11.053Z,3.70
2019-02-07T09:49:57.872Z,3.70
2019-02-07T09:52:40.526Z,3.80
2019-02-07T09:55:38.629Z,3.90
2019-02-07T09:58:25.321Z,4.00
2019-02-07T10:01:16.469Z,4.10
2019-02-07T10:04:03.233Z,4.00
2019-02-07T10:06:51.219Z,4.00
2019-02-07T10:09:34.316Z,4.00
2019-02-07T10:12:24.794Z,4.10
2019-02-07T10:15:03.209Z,4.10
2019-02-07T10:17:54.310Z,4.30
2019-02-07T10:21:01.508Z,4.40
2019-02-07T10:23:55.478Z,4.40
2019-02-07T10:26:42.134Z,4.50
2019-02-07T10:29:29.050Z,4.50
2019-02-07T10:32:07.128Z,4.60
2019-02-07T10:34:44.007Z,4.70
2019-02-07T10:37:29.678Z,4.80
2019-02-07T10:40:17.735Z,4.80
2019-02-07T10:43:14.704Z,4.90
2019-02-07T10:46:01.664Z,4.80
2019-02-07T10:49:01.749Z,4.80
2019-02-07T10:51:43.065Z,4.80
2019-02-07T10:54:31.633Z,4.80
2019-02-07T10:57:18.623Z,4.90
2019-02-07T11:00:16.041Z,5.00
2019-02-07T11:03:07.306Z,5.10
2019-02-07T11:05:45.595Z,5.10
2019-02-07T11:08:25.971Z,5.20
2019-02-07T11:11:02.919Z,5.20
2019-02-07T11:13:53.870Z,5.30
2019-02-07T11:16:45.379Z,5.30
2019-02-07T11:19:33.455Z,5.30
2019-02-07T11:22:14.592Z,5.30
2019-02-07T11:24:56.158Z,5.30
2019-02-07T11:27:44.421Z,5.40
2019-02-07T11:30:37.581Z,5.50
2019-02-07T11:33:42.391Z,5.50
2019-02-07T11:36:29.410Z,5.70
2019-02-07T11:39:29.679Z,5.70
2019-02-07T11:42:10.877Z,5.70
2019-02-07T11:44:52.028Z,5.80
2019-02-07T11:47:46.748Z,5.70
2019-02-07T11:50:36.720Z,5.60
2019-02-07T11:53:27.955Z,5.60
2019-02-07T11:56:09.597Z,5.60
2019-02-07T11:59:06.209Z,5.50
2019-02-07T12:01:54.286Z,5.60
2019-02-07T12:04:30.509Z,5.60
2019-02-07T12:07:27.654Z,5.70
2019-02-07T12:10:06.482Z,5.80
2019-02-07T12:13:09.629Z,5.80
2019-02-07T12:16:09.772Z,5.80
2019-02-07T12:19:00.565Z,6.00
2019-02-07T12:21:47.154Z,6.00
2019-02-07T12:24:28.708Z,6.00
2019-02-07T12:27:28.786Z,6.00
2019-02-07T12:30:10.593Z,5.80
2019-02-07T12:32:58.671Z,5.80
2019-02-07T12:35:46.734Z,5.90
2019-02-07T12:38:34.877Z,6.00
2019-02-07T12:41:33.009Z,6.00
2019-02-07T12:44:27.487Z,5.90
2019-02-07T12:47:18.961Z,6.00
2019-02-07T12:50:05.859Z,6.10
2019-02-07T12:53:06.270Z,6.10
2019-02-07T12:55:52.305Z,6.20
2019-02-07T12:58:49.269Z,6.20
2019-02-07T13:01:36.089Z,6.30
2019-02-07T13:04:24.643Z,6.40
2019-02-07T13:07:12.705Z,6.50
2019-02-07T13:09:58.417Z,6.60
2019-02-07T13:12:46.522Z,6.70
2019-02-07T13:15:37.874Z,6.70
2019-02-07T13:18:24.548Z,6.90
2019-02-07T13:21:12.810Z,6.90
2019-02-07T13:24:00.980Z,6.90
2019-02-07T13:26:58.505Z,7.00
2019-02-07T13:29:34.317Z,7.00
2019-02-07T13:32:20.662Z,7.10
2019-02-07T13:35:08.015Z,7.20
2019-02-07T13:37:49.929Z,7.20
2019-02-07T13:40:44.927Z,7.20
2019-02-07T13:43:31.662Z,7.30
2019-02-07T13:46:17.683Z,7.30
2019-02-07T13:49:12.174Z,7.30
2019-02-07T13:52:03.353Z,7.40
2019-02-07T13:54:41.194Z,7.30
2019-02-07T13:57:47.674Z,7.30
2019-02-07T14:00:39.033Z,7.30
2019-02-07T14:03:25.406Z,7.50
2019-02-07T14:06:13.414Z,7.40
2019-02-07T14:09:00.563Z,7.40
2019-02-07T14:11:47.547Z,7.40
2019-02-07T14:14:34.538Z,7.40
2019-02-07T14:17:34.952Z,7.40
2019-02-07T14:20:23.522Z,7.40
2019-02-07T14:23:04.502Z,7.40
2019-02-07T14:25:51.829Z,7.40
2019-02-07T14:28:42.849Z,7.40
2019-02-07T14:31:29.766Z,7.40
2019-02-07T14:34:16.670Z,7.40
2019-02-07T14:37:06.736Z,7.40
2019-02-07T14:39:43.771Z,7.40
2019-02-07T14:42:38.834Z,7.40
2019-02-07T14:45:35.806Z,7.40
2019-02-07T14:48:05.082Z,7.40
2019-02-07T14:50:34.079Z,7.30
2019-02-07T14:53:03.519Z,7.40
2019-02-07T14:55:32.517Z,7.40
2019-02-07T14:58:01.516Z,7.40
2019-02-07T15:00:30.545Z,7.40
2019-02-07T15:02:59.549Z,7.40
2019-02-07T15:05:31.199Z,7.30
2019-02-07T15:07:59.686Z,7.40
2019-02-07T15:10:28.779Z,7.40
2019-02-07T15:12:57.783Z,7.40
2019-02-07T15:15:26.781Z,7.50
2019-02-07T15:17:55.787Z,7.40
2019-02-07T15:20:26.389Z,7.40
2019-02-07T15:22:55.586Z,7.30
2019-02-07T15:25:24.639Z,7.20
2019-02-07T15:27:53.638Z,7.20
2019-02-07T15:30:22.710Z,7.10
2019-02-07T15:32:51.626Z,7.20
2019-02-07T15:35:30.991Z,7.20
2019-02-07T15:38:00.173Z,7.10
2019-02-07T15:40:29.184Z,7.20
2019-02-07T15:42:58.617Z,7.20
2019-02-07T15:45:27.832Z,7.20
2019-02-07T15:47:56.822Z,7.20
2019-02-07T15:50:37.334Z,7.20
2019-02-07T15:52:58.802Z,7.20
2019-02-07T15:55:32.265Z,7.20
2019-02-07T15:58:01.650Z,7.20
2019-02-07T16:00:48.655Z,7.30
2019-02-07T16:03:38.809Z,7.30
2019-02-07T16:06:08.009Z,7.30
2019-02-07T16:08:37.462Z,7.20
2019-02-07T16:11:06.902Z,7.20
2019-02-07T16:13:36.318Z,7.10
2019-02-07T16:16:05.348Z,7.00
2019-02-07T16:18:34.419Z,7.00
2019-02-07T16:21:03.482Z,7.10
2019-02-07T16:23:32.536Z,7.10
2019-02-07T16:26:01.615Z,7.00
2019-02-07T16:28:31.146Z,6.90
2019-02-07T16:31:00.177Z,6.80
2019-02-07T16:33:29.182Z,6.80
2019-02-07T16:35:58.205Z,6.80
2019-02-07T16:38:27.123Z,6.70
2019-02-07T16:40:56.217Z,6.60
2019-02-07T16:43:26.005Z,6.60
2019-02-07T16:45:55.013Z,6.60
2019-02-07T16:48:23.925Z,6.50
2019-02-07T16:51:00.425Z,6.50
2019-02-07T16:53:24.211Z,6.40
2019-02-07T16:55:53.203Z,6.30
2019-02-07T16:58:22.496Z,6.30
2019-02-07T17:00:51.401Z,6.20
2019-02-07T17:03:20.399Z,6.00
2019-02-07T17:05:49.549Z,6.00
2019-02-07T17:08:18.569Z,6.10
2019-02-07T17:10:47.556Z,6.00
2019-02-07T17:13:17.485Z,6.00
2019-02-07T17:15:46.470Z,5.80
2019-02-07T17:18:15.693Z,5.60
2019-02-07T17:20:45.310Z,5.50
2019-02-07T17:23:14.293Z,5.30
2019-02-07T17:25:43.298Z,5.30
2019-02-07T17:28:12.805Z,5.20
2019-02-07T17:30:41.813Z,5.20
2019-02-07T17:33:10.818Z,5.00
2019-02-07T17:35:39.919Z,5.10
2019-02-07T17:38:08.910Z,5.10
2019-02-07T17:40:37.833Z,5.10
2019-02-07T17:43:06.851Z,4.90
2019-02-07T17:45:35.872Z,4.90
2019-02-07T17:48:05.170Z,4.80
2019-02-07T17:50:34.377Z,4.80
2019-02-07T17:53:04.813Z,4.60
2019-02-07T17:55:34.063Z,4.50
2019-02-07T17:58:03.244Z,4.50
2019-02-07T18:00:41.323Z,4.50
2019-02-07T18:03:10.330Z,4.50
2019-02-07T18:05:39.558Z,4.40
2019-02-07T18:08:09.257Z,4.30
2019-02-07T18:10:38.298Z,4.40
2019-02-07T18:13:07.674Z,4.10
2019-02-07T18:15:36.668Z,4.10
2019-02-07T18:18:05.835Z,4.10
2019-02-07T18:20:34.837Z,4.10
2019-02-07T18:23:04.038Z,4.10
2019-02-07T18:25:33.497Z,4.00
2019-02-07T18:28:03.393Z,4.00
2019-02-07T18:30:32.393Z,4.20
2019-02-07T18:33:01.421Z,4.20
2019-02-07T18:35:30.475Z,4.20
2019-02-07T18:37:59.463Z,4.20
2019-02-07T18:40:29.042Z,4.30
2019-02-07T18:42:58.033Z,4.20
2019-02-07T18:45:27.037Z,4.30
2019-02-07T18:47:58.682Z,4.40
2019-02-07T18:50:30.361Z,4.50
2019-02-07T18:52:59.810Z,4.50
2019-02-07T18:55:28.862Z,4.40
2019-02-07T18:57:57.944Z,4.30
2019-02-07T19:00:31.423Z,4.30
2019-02-07T19:03:00.730Z,4.10
2019-02-07T19:05:29.777Z,4.10
2019-02-07T19:07:58.786Z,4.00
2019-02-07T19:10:28.214Z,4.00
2019-02-07T19:12:57.933Z,3.90
2019-02-07T19:15:48.649Z,3.90
2019-02-07T19:18:17.671Z,3.80
2019-02-07T19:20:47.074Z,3.80
2019-02-07T19:23:16.108Z,3.70
2019-02-07T19:25:45.210Z,3.60
2019-02-07T19:28:14.222Z,3.50
2019-02-07T19:30:43.254Z,3.40
2019-02-07T19:33:12.354Z,3.40
2019-02-07T19:35:41.359Z,3.30
2019-02-07T19:38:10.788Z,3.20
2019-02-07T19:40:40.161Z,3.30
2019-02-07T19:43:09.168Z,3.20
2019-02-07T19:45:38.146Z,3.20
2019-02-07T19:48:07.202Z,3.10
2019-02-07T19:50:36.460Z,3.00
2019-02-07T19:53:05.584Z,3.00
2019-02-07T19:55:34.966Z,2.90
2019-02-07T19:58:04.769Z,2.80
2019-02-07T20:00:34.319Z,2.80
2019-02-07T20:03:03.332Z,2.80
2019-02-07T20:05:32.364Z,2.90
2019-02-07T20:08:01.828Z,2.90
2019-02-07T20:10:31.090Z,2.80
2019-02-07T20:13:01.190Z,2.80
2019-02-07T20:15:32.722Z,2.80
2019-02-07T20:18:01.720Z,2.80
2019-02-07T20:20:30.706Z,2.70
2019-02-07T20:22:59.766Z,2.80
2019-02-07T20:25:28.949Z,2.80
2019-02-07T20:27:58.345Z,2.90
2019-02-07T20:30:29.510Z,2.90
2019-02-07T20:32:58.568Z,2.80
2019-02-07T20:35:27.572Z,2.80
2019-02-07T20:37:56.588Z,2.90
2019-02-07T20:40:26.698Z,2.90
2019-02-07T20:42:55.729Z,2.80
2019-02-07T20:45:25.189Z,2.80
2019-02-07T20:47:54.108Z,2.80
2019-02-07T20:50:24.430Z,2.80
2019-02-07T20:52:53.578Z,2.70
2019-02-07T20:55:25.194Z,2.70
2019-02-07T20:57:54.331Z,2.80
2019-02-07T21:00:29.022Z,2.80
2019-02-07T21:02:58.033Z,2.80
2019-02-07T21:05:28.115Z,2.80
2019-02-07T21:07:57.074Z,2.80
2019-02-07T21:10:26.808Z,2.80
2019-02-07T21:12:55.810Z,2.80
2019-02-07T21:15:26.478Z,2.80
2019-02-07T21:17:55.481Z,2.90
2019-02-07T21:20:26.157Z,2.90
2019-02-07T21:22:56.200Z,2.90
2019-02-07T21:25:27.726Z,2.80
2019-02-07T21:27:56.801Z,2.90
2019-02-07T21:30:28.294Z,3.00
2019-02-07T21:32:57.465Z,3.00
2019-02-07T21:35:26.598Z,3.10
2019-02-07T21:37:55.662Z,3.20
2019-02-07T21:40:26.603Z,3.50
2019-02-07T21:42:57.668Z,3.40
2019-02-07T21:45:26.692Z,3.50
2019-02-07T21:47:55.905Z,3.50
2019-02-07T21:50:26.047Z,3.70
2019-02-07T21:52:55.070Z,3.70
2019-02-07T21:55:26.223Z,3.60
2019-02-07T21:57:55.234Z,3.60
2019-02-07T22:00:26.937Z,3.60
2019-02-07T22:02:56.033Z,3.50
2019-02-07T22:05:25.673Z,3.60
2019-02-07T22:07:55.006Z,3.60
2019-02-07T22:10:24.278Z,3.60
2019-02-07T22:12:53.266Z,3.70
2019-02-07T22:15:22.901Z,3.80
2019-02-07T22:17:52.097Z,3.90
2019-02-07T22:20:25.060Z,4.00
2019-02-07T22:22:54.463Z,4.10
2019-02-07T22:25:23.957Z,4.10
2019-02-07T22:27:53.043Z,4.10
2019-02-07T22:30:28.849Z,4.10
2019-02-07T22:32:58.190Z,4.10
2019-02-07T22:35:27.186Z,4.10
2019-02-07T22:37:56.202Z,4.20
2019-02-07T22:40:25.250Z,4.30
2019-02-07T22:42:54.594Z,4.30
2019-02-07T22:45:25.104Z,4.30
2019-02-07T22:47:54.130Z,4.30
2019-02-07T22:50:25.014Z,4.30
2019-02-07T22:52:56.940Z,4.30
2019-02-07T22:55:24.892Z,4.40
2019-02-07T22:57:54.265Z,4.40
2019-02-07T23:01:10.758Z,4.40
2019-02-07T23:04:02.577Z,4.40
2019-02-07T23:06:31.618Z,4.50
2019-02-07T23:09:00.612Z,4.40
2019-02-07T23:11:29.608Z,4.40
2019-02-07T23:13:58.602Z,4.40
2019-02-07T23:16:28.069Z,4.40
2019-02-07T23:18:57.418Z,4.40
2019-02-07T23:21:26.435Z,4.40
2019-02-07T23:23:55.412Z,4.40
2019-02-07T23:26:24.509Z,4.30
2019-02-07T23:28:53.564Z,4.30
2019-02-07T23:31:22.550Z,4.30
2019-02-07T23:33:51.540Z,4.30
2019-02-07T23:36:20.927Z,4.30
2019-02-07T23:38:49.846Z,4.30
2019-02-07T23:41:19.170Z,4.30
2019-02-07T23:43:48.190Z,4.30
2019-02-07T23:46:17.265Z,4.40
2019-02-07T23:48:46.529Z,4.40
2019-02-07T23:51:15.678Z,4.40
2019-02-07T23:53:44.595Z,4.40
2019-02-07T23:56:13.504Z,4.40
2019-02-07T23:58:42.640Z,4.40
